createdAt,value
2024-04-30T00:03:44.535Z,17.47
2024-04-30T00:08:47.493Z,17.46
2024-04-30T00:13:52.114Z,17.44
2024-04-30T00:18:55.158Z,17.42
2024-04-30T00:23:58.180Z,17.38
2024-04-30T00:29:01.375Z,17.33
2024-04-30T00:34:04.462Z,17.29
2024-04-30T00:39:09.509Z,17.27
2024-04-30T00:44:12.779Z,17.26
2024-04-30T00:49:15.920Z,17.21
2024-04-30T00:54:19.199Z,17.18
2024-04-30T00:59:22.176Z,17.16
2024-04-30T01:04:25.194Z,17.14
2024-04-30T01:09:28.158Z,17.11
2024-04-30T01:14:31.245Z,17.07
2024-04-30T01:19:34.197Z,17.04
2024-04-30T01:24:37.337Z,16.98
2024-04-30T01:29:40.344Z,16.94
2024-04-30T01:34:43.386Z,16.90
2024-04-30T01:39:46.536Z,16.88
2024-04-30T01:44:49.402Z,16.82
2024-04-30T01:49:52.416Z,16.75
2024-04-30T01:54:55.384Z,16.72
2024-04-30T01:59:58.445Z,16.66
2024-04-30T02:05:07.848Z,16.64
2024-04-30T02:10:17.499Z,16.56
2024-04-30T02:15:20.451Z,16.54
2024-04-30T02:20:23.366Z,16.54
2024-04-30T02:25:26.353Z,16.54
2024-04-30T02:30:48.132Z,16.52
2024-04-30T02:35:51.088Z,16.52
2024-04-30T02:40:54.216Z,16.52
2024-04-30T02:45:57.184Z,16.51
2024-04-30T02:51:04.323Z,16.49
2024-04-30T02:56:07.454Z,16.47
2024-04-30T03:01:14.577Z,16.43
2024-04-30T03:06:17.741Z,16.40
2024-04-30T03:11:20.994Z,16.37
2024-04-30T03:16:24.316Z,16.34
2024-04-30T03:21:27.249Z,16.31
2024-04-30T03:26:30.202Z,16.29
2024-04-30T03:31:33.146Z,16.29
2024-04-30T03:36:36.136Z,16.29
2024-04-30T03:41:39.076Z,16.27
2024-04-30T03:46:42.082Z,16.27
2024-04-30T03:51:45.108Z,16.27
2024-04-30T03:56:48.238Z,16.26
2024-04-30T04:01:51.554Z,16.30
2024-04-30T04:06:55.590Z,16.35
2024-04-30T04:12:17.533Z,16.46
2024-04-30T04:17:21.043Z,16.57
2024-04-30T04:22:24.090Z,16.70
2024-04-30T04:27:27.122Z,17.06
2024-04-30T04:32:31.620Z,17.54
2024-04-30T04:37:35.934Z,17.79
2024-04-30T04:42:38.887Z,17.98
2024-04-30T04:47:41.942Z,18.41
2024-04-30T04:52:45.016Z,18.82
2024-04-30T04:57:47.977Z,19.08
2024-04-30T05:02:50.943Z,19.29
2024-04-30T05:07:54.019Z,19.59
2024-04-30T05:12:57.615Z,19.70
2024-04-30T05:18:00.593Z,19.70
2024-04-30T05:23:03.832Z,19.73
2024-04-30T05:28:07.170Z,19.83
2024-04-30T05:33:13.186Z,19.72
2024-04-30T05:38:16.202Z,19.82
2024-04-30T05:43:19.973Z,19.94
2024-04-30T05:48:23.226Z,19.90
2024-04-30T05:53:26.215Z,19.93
2024-04-30T05:58:29.159Z,20.13
2024-04-30T06:03:32.192Z,20.39
2024-04-30T06:08:36.621Z,20.57
2024-04-30T06:13:44.328Z,20.69
2024-04-30T06:18:47.387Z,20.72
2024-04-30T06:23:50.356Z,20.78
2024-04-30T06:28:54.116Z,20.77
2024-04-30T06:33:57.526Z,20.76
2024-04-30T06:39:00.809Z,20.87
2024-04-30T06:44:03.932Z,21.01
2024-04-30T06:49:07.584Z,21.23
2024-04-30T06:54:10.509Z,21.27
2024-04-30T06:59:13.411Z,21.14
2024-04-30T07:04:16.482Z,21.33
2024-04-30T07:09:19.661Z,21.28
2024-04-30T07:14:22.711Z,21.24
2024-04-30T07:19:28.392Z,21.37
2024-04-30T07:24:31.395Z,21.24
2024-04-30T07:29:34.386Z,21.30
2024-04-30T07:34:37.596Z,21.47
2024-04-30T07:39:40.828Z,21.65
2024-04-30T07:44:43.803Z,21.77
2024-04-30T07:49:46.901Z,22.01
2024-04-30T07:54:49.865Z,22.16
2024-04-30T07:59:52.867Z,22.19
2024-04-30T08:04:55.822Z,22.22
2024-04-30T08:09:58.952Z,22.27
2024-04-30T08:15:04.368Z,22.38
2024-04-30T08:20:08.219Z,22.48
2024-04-30T08:25:11.108Z,22.53
2024-04-30T08:30:14.526Z,22.77
2024-04-30T08:35:18.010Z,22.84
2024-04-30T08:40:21.030Z,22.97
2024-04-30T08:45:27.258Z,23.20
2024-04-30T08:50:33.743Z,23.36
2024-04-30T08:55:40.071Z,23.44
2024-04-30T09:00:45.106Z,23.70
2024-04-30T09:05:49.240Z,24.02
2024-04-30T09:10:54.870Z,24.17
2024-04-30T09:16:02.213Z,24.40
2024-04-30T09:21:16.453Z,24.59
2024-04-30T09:26:20.680Z,24.81
2024-04-30T09:31:23.602Z,24.91
2024-04-30T09:36:26.642Z,25.06
2024-04-30T09:41:31.900Z,25.08
2024-04-30T09:46:36.543Z,25.10
2024-04-30T09:51:42.355Z,25.24
2024-04-30T09:56:48.264Z,25.34
2024-04-30T10:01:53.653Z,25.41
2024-04-30T10:06:58.455Z,25.52
2024-04-30T10:12:01.472Z,25.62
2024-04-30T10:17:05.745Z,25.72
2024-04-30T10:22:14.680Z,25.66
2024-04-30T10:27:25.413Z,25.64
2024-04-30T10:32:28.414Z,25.84
2024-04-30T10:37:31.869Z,26.01
2024-04-30T10:42:36.603Z,26.12
2024-04-30T10:47:39.675Z,26.21
2024-04-30T10:52:42.851Z,26.35
2024-04-30T10:57:45.755Z,26.56
2024-04-30T11:02:56.350Z,26.68
2024-04-30T11:08:00.272Z,26.68
2024-04-30T11:13:04.954Z,26.68
2024-04-30T11:18:08.175Z,26.81
2024-04-30T11:23:11.212Z,26.89
2024-04-30T11:28:14.349Z,27.04
2024-04-30T11:33:17.460Z,27.15
2024-04-30T11:38:22.850Z,27.19
2024-04-30T11:43:25.806Z,27.13
2024-04-30T11:48:34.233Z,27.14
2024-04-30T11:53:38.726Z,27.12
2024-04-30T11:58:42.245Z,27.16
2024-04-30T12:03:45.223Z,27.30
2024-04-30T12:08:48.352Z,27.28
2024-04-30T12:13:52.431Z,27.27
2024-04-30T12:18:59.839Z,27.37
2024-04-30T12:24:02.743Z,27.45
2024-04-30T12:29:05.771Z,27.44
2024-04-30T12:34:08.874Z,27.50
2024-04-30T12:39:11.907Z,27.57
2024-04-30T12:44:15.232Z,27.55
2024-04-30T12:49:18.288Z,27.53
2024-04-30T12:54:21.333Z,27.48
2024-04-30T12:59:24.224Z,27.57
2024-04-30T13:04:27.363Z,27.63
2024-04-30T13:09:32.714Z,27.75
2024-04-30T13:14:35.860Z,27.66
2024-04-30T13:19:39.322Z,27.69
2024-04-30T13:24:42.377Z,27.65
2024-04-30T13:29:45.336Z,27.57
2024-04-30T13:34:48.747Z,27.62
2024-04-30T13:39:51.748Z,27.64
2024-04-30T13:44:54.788Z,27.69
2024-04-30T13:49:58.043Z,27.73
2024-04-30T13:55:01.143Z,27.66
2024-04-30T14:00:04.705Z,27.74
2024-04-30T14:05:07.821Z,27.84
2024-04-30T14:10:11.026Z,27.89
2024-04-30T14:15:14.417Z,27.86
2024-04-30T14:20:19.478Z,27.80
2024-04-30T14:25:22.710Z,27.80
2024-04-30T14:30:25.767Z,27.78
2024-04-30T14:35:48.756Z,27.83
2024-04-30T14:40:51.854Z,27.83
2024-04-30T14:45:54.851Z,27.79
2024-04-30T14:50:57.902Z,27.82
2024-04-30T14:56:00.822Z,27.89
2024-04-30T15:01:04.034Z,27.86
2024-04-30T15:06:07.089Z,27.82
2024-04-30T15:11:24.270Z,27.79
2024-04-30T15:16:27.544Z,27.74
2024-04-30T15:21:30.532Z,27.64
2024-04-30T15:26:38.643Z,27.57
2024-04-30T15:31:41.793Z,27.58
2024-04-30T15:36:44.917Z,27.58
2024-04-30T15:41:48.927Z,27.57
2024-04-30T15:46:51.919Z,27.63
2024-04-30T15:51:54.889Z,27.57
2024-04-30T15:57:02.877Z,27.54
2024-04-30T16:02:06.832Z,27.49
2024-04-30T16:07:10.326Z,27.51
2024-04-30T16:12:13.340Z,27.42
2024-04-30T16:17:16.737Z,27.30
2024-04-30T16:22:19.968Z,27.20
2024-04-30T16:27:22.979Z,27.10
2024-04-30T16:32:26.082Z,27.28
2024-04-30T16:37:29.022Z,27.80
2024-04-30T16:42:31.983Z,28.09
2024-04-30T16:47:34.978Z,28.39
2024-04-30T16:52:38.101Z,28.65
2024-04-30T16:57:41.137Z,28.67
2024-04-30T17:02:44.050Z,28.59
2024-04-30T17:07:46.925Z,28.47
2024-04-30T17:12:51.070Z,28.21
2024-04-30T17:17:55.669Z,27.96
2024-04-30T17:22:58.983Z,27.69
2024-04-30T17:28:01.840Z,27.43
2024-04-30T17:33:05.994Z,27.00
2024-04-30T17:38:10.935Z,26.64
2024-04-30T17:43:14.026Z,26.24
2024-04-30T17:48:17.320Z,25.94
2024-04-30T17:53:22.410Z,25.54
2024-04-30T17:58:25.383Z,25.05
2024-04-30T18:03:28.609Z,24.68
2024-04-30T18:08:31.715Z,24.36
2024-04-30T18:13:35.042Z,24.04
2024-04-30T18:18:38.016Z,23.75
2024-04-30T18:23:40.958Z,23.44
2024-04-30T18:28:51.255Z,23.21
2024-04-30T18:33:55.636Z,22.99
2024-04-30T18:39:01.566Z,22.81
2024-04-30T18:44:04.827Z,22.61
2024-04-30T18:49:08.268Z,22.45
2024-04-30T18:54:11.871Z,22.29
2024-04-30T18:59:15.488Z,22.15
2024-04-30T19:04:18.724Z,22.01
2024-04-30T19:09:22.665Z,21.87
2024-04-30T19:14:25.875Z,21.74
2024-04-30T19:19:28.974Z,21.61
2024-04-30T19:24:32.024Z,21.45
2024-04-30T19:29:37.971Z,21.33
2024-04-30T19:34:41.230Z,21.20
2024-04-30T19:39:44.537Z,21.05
2024-04-30T19:44:47.703Z,20.92
2024-04-30T19:49:50.908Z,20.81
2024-04-30T19:54:53.950Z,20.70
2024-04-30T19:59:57.187Z,20.57
2024-04-30T20:05:00.410Z,20.46
2024-04-30T20:10:04.045Z,20.35
2024-04-30T20:15:07.847Z,20.21
2024-04-30T20:20:11.320Z,20.09
2024-04-30T20:25:14.790Z,19.99
2024-04-30T20:30:18.088Z,19.93
2024-04-30T20:35:21.257Z,19.88
2024-04-30T20:40:24.425Z,19.82
2024-04-30T22:24:48.539Z,18.41
2024-04-30T22:29:57.819Z,18.25
2024-04-30T22:35:04.792Z,18.11
2024-04-30T22:40:08.331Z,18.00
2024-04-30T22:45:11.457Z,17.88
2024-04-30T22:50:14.461Z,17.76
2024-04-30T22:55:17.741Z,17.65
2024-04-30T23:00:20.800Z,17.56
2024-04-30T23:05:23.993Z,17.49
2024-04-30T23:10:27.136Z,17.37
2024-04-30T23:15:30.255Z,17.25
2024-04-30T23:20:33.208Z,17.12
2024-04-30T23:25:36.202Z,16.97
2024-04-30T23:30:39.137Z,16.89
2024-04-30T23:35:42.128Z,16.85
2024-04-30T23:40:45.079Z,16.82
2024-04-30T23:45:48.159Z,16.79
2024-04-30T23:50:51.240Z,16.73
2024-04-30T23:55:54.261Z,16.68
